AXGD002 XC Trainer V3.3-00, S/N 5125
HFDTE220415
HOPLTPILOT: Carlos López-Fé
HOGTYGLIDERTYPE: Advance Epsilon 7
HOGIDGLIDERID: None
HODTM100GPSDATUM: WGS-84
HOCIDCOMPETITIONID: 
HOCCLCOMPETITION CLASS: Club
HOSITSite: Algodonales Poniente
B1407333653672N00524955WA0091600398
B1407373653670N00524965WA0091300911
B1407413653675N00524978WA0091600911
B1407453653680N00524987WA0092100912
B1407493653685N00525000WA0091900914
B1407533653695N00525012WA0092100915
B1407573653705N00525020WA0092300917
B1408013653720N00525025WA0092400919
B1408053653735N00525030WA0092500921
B1408093653745N00525040WA0092400922
B1408133653742N00525050WA0092400922
B1408173653725N00525047WA0092000923
B1408213653712N00525035WA0092100923
B1408253653695N00525030WA0091600923
B1408293653685N00525033WA0091400922
B1408333653672N00525037WA0091600921
B1408373653663N00525042WA0091500920
B1408413653658N00525053WA0091700919
B1408453653647N00525060WA0091400918
B1408493653640N00525065WA0092400918
B1408533653622N00525072WA0092100918
B1408573653613N00525085WA0092300921
B1409013653600N00525100WA0092200924
B1409053653595N00525115WA0092400928
B1409093653597N00525135WA0091700932
B1409133653595N00525150WA0091400934
B1409173653580N00525158WA0090900934
B1409213653563N00525155WA0090300934
B1409253653545N00525155WA0090100932
B1409293653527N00525155WA0090000930
B1409333653510N00525155WA0090000927
B1409373653500N00525158WA0090300926
B1409413653483N00525158WA0090200925
B1409453653468N00525153WA0090600925
B1409493653450N00525148WA0090900925
B1409533653435N00525145WA0091000926
B1409573653425N00525148WA0091700927
B1410013653425N00525155WA0092800929
B1410053653420N00525165WA0094200932
B1410093653420N00525170WA0095800936
B1410133653413N00525173WA0096600942
B1410173653402N00525150WA0097500953
B1410213653402N00525115WA0097900965
B1410253653405N00525080WA0099200975
B1410293653425N00525060WA0100400985
B1410333653443N00525047WA0101800993
B1410373653458N00525045WA0102801002
B1410413653468N00525047WA0103701010
B1410453653468N00525060WA0103601016
B1410493653468N00525075WA0104201022
B1410533653458N00525080WA0105001031
B1410573653445N00525075WA0106201038
B1411013653433N00525070WA0107701053
B1411053653418N00525060WA0109301067
B1411093653408N00525030WA0110701080
B1411133653410N00524997WA0112001094
B1411173653430N00524980WA0113101106
B1411213653443N00524987WA0114501118
B1411253653450N00524997WA0115701126
B1411293653458N00525008WA0117001135
B1411333653460N00525020WA0117801144
B1411373653458N00525030WA0117701152
B1411413653458N00525045WA0117301160
B1411453653463N00525055WA0116501167
B1411493653470N00525065WA0116001171
B1411533653477N00525078WA0115601175
B1411573653485N00525087WA0115601176
B1412013653495N00525098WA0115601177
B1412053653505N00525110WA0115501177
B1412093653515N00525123WA0115301176
B1412133653525N00525140WA0114701174
B1412173653530N00525160WA0114901172
B1412213653530N00525175WA0115901172
B1412253653525N00525192WA0116601174
B1412293653525N00525212WA0117101177
B1412333653520N00525230WA0117901181
B1412373653515N00525248WA0118301186
B1412413653515N00525265WA0118401189
B1412453653515N00525285WA0117701192
B1412493653515N00525305WA0117801194
B1412533653510N00525323WA0118101195
B1412573653502N00525340WA0118001197
B1413013653502N00525360WA0117701198
B1413053653508N00525377WA0117301198
B1413093653517N00525395WA0116701196
B1413133653530N00525410WA0116101194
B1413173653542N00525427WA0115401190
B1413213653558N00525443WA0115101186
B1413253653572N00525460WA0114301181
B1413293653590N00525470WA0113501176
B1413333653610N00525475WA0113101170
B1413373653633N00525477WA0112601164
B1413413653655N00525480WA0112401158
B1413453653675N00525477WA0112101153
B1413493653692N00525475WA0112401149
B1413533653712N00525465WA0112401146
B1413573653730N00525457WA0112701144
B1414013653747N00525455WA0112801143
B1414053653765N00525455WA0113001142
B1414093653783N00525460WA0113001142
B1414133653798N00525465WA0113401143
B1414173653815N00525470WA0113701144
B1414213653833N00525475WA0113801145
B1414253653853N00525477WA0113801147
B1414293653873N00525470WA0113801148
B1414333653892N00525457WA0113801149
B1414373653910N00525435WA0114401149
B1414413653917N00525405WA0115101150
B1414453653917N00525375WA0115801155
B1414493653912N00525348WA0116601161
B1414533653898N00525332WA0117201169
B1414573653885N00525335WA0117901175
B1415013653885N00525350WA0118601180
B1415053653895N00525357WA0119201186
B1415093653915N00525355WA0119701194
B1415133653937N00525343WA0120701201
B1415173653945N00525315WA0121601209
B1415213653935N00525293WA0122101217
B1415253653923N00525278WA0123001226
B1415293653910N00525260WA0123901234
B1415333653895N00525253WA0124501242
B1415373653885N00525260WA0125601247
B1415413653890N00525273WA0126001252
B1415453653907N00525273WA0126901259
B1415493653928N00525250WA0127701265
B1415533653930N00525220WA0128401272
B1415573653920N00525198WA0129301280
B1416013653905N00525185WA0130201288
B1416053653890N00525185WA0130701296
B1416093653885N00525198WA0131201302
B1416133653895N00525207WA0131901309
B1416173653915N00525207WA0132501317
B1416213653937N00525195WA0132601323
B1416253653945N00525165WA0133101328
B1416293653935N00525137WA0133801335
B1416333653917N00525135WA0135001342
B1416373653903N00525140WA0135901349
B1416413653892N00525148WA0136701355
B1416453653892N00525165WA0137201361
B1416493653892N00525178WA0139301369
B1416533653890N00525195WA0140501377
B1416573653892N00525207WA0141801384
B1417013653892N00525225WA0141801391
B1417053653898N00525235WA0142501402
B1417093653900N00525248WA0142601409
B1417133653905N00525260WA0142301417
B1417173653912N00525275WA0142201424
B1417213653917N00525293WA0142301429
B1417253653928N00525307WA0142501432
B1417293653945N00525323WA0142601435
B1417333653968N00525332WA0143001439
B1417373653987N00525345WA0143301442
B1417413654007N00525355WA0143601445
B1417453654032N00525360WA0144001447
B1417493654055N00525362WA0143901449
B1417533654080N00525355WA0143101449
B1417573654102N00525350WA0142301448
B1418013654125N00525337WA0141001444
B1418053654148N00525325WA0140101439
B1418093654170N00525312WA0139301433
B1418133654185N00525295WA0138401425
B1418173654200N00525275WA0138001418
B1418213654213N00525253WA0137101411
B1418253654218N00525228WA0136301404
B1418293654218N00525205WA0136101397
B1418333654215N00525180WA0135301390
B1418373654207N00525160WA0134901384
B1418413654195N00525145WA0134301379
B1418453654177N00525140WA0134001375
B1418493654160N00525145WA0133401371
B1418533654150N00525158WA0134101369
B1418573654145N00525170WA0134701368
B1419013654148N00525185WA0135301368
B1419053654165N00525195WA0135401369
B1419093654185N00525190WA0135201368
B1419133654207N00525192WA0134701367
B1419173654225N00525203WA0134601365
B1419213654240N00525220WA0134701363
B1419253654250N00525237WA0134401362
B1419293654257N00525260WA0133201360
B1419333654257N00525285WA0132601356
B1419373654255N00525307WA0131901353
B1419413654250N00525328WA0131401349
B1419453654245N00525348WA0130501344
B1419493654238N00525370WA0130001338
B1419533654230N00525390WA0129201331
B1419573654220N00525407WA0128601324
B1420013654213N00525427WA0127601317
B1420053654202N00525445WA0126801310
B1420093654195N00525463WA0126001303
B1420133654188N00525482WA0124501294
B1420173654180N00525502WA0123501285
B1420213654170N00525520WA0122501275
B1420253654160N00525535WA0121801266
B1420293654150N00525547WA0121101257
B1420333654137N00525563WA0120201249
B1420373654130N00525575WA0119901241
B1420413654120N00525588WA0119501233
B1420453654107N00525600WA0119501227
B1420493654100N00525610WA0119501221
B1420533654090N00525622WA0119301217
B1420573654080N00525635WA0119201214
B1421013654073N00525650WA0118801211
B1421053654062N00525663WA0118001208
B1421093654053N00525677WA0117401205
B1421133654040N00525690WA0116401201
B1421173654030N00525700WA0116001196
B1421213654020N00525705WA0115901193
B1421253654010N00525713WA0115501188
B1421293654000N00525718WA0116001184
B1421333653990N00525715WA0116501183
B1421373653978N00525718WA0116601183
B1421413653970N00525715WA0116701183
B1421453653957N00525718WA0116301183
B1421493653948N00525722WA0116301183
B1421533653937N00525725WA0116501183
B1421573653923N00525727WA0116501182
B1422013653910N00525733WA0116601182
B1422053653895N00525735WA0117001183
B1422093653880N00525735WA0117301184
B1422133653873N00525742WA0117301184
B1422173653867N00525758WA0117101185
B1422213653855N00525765WA0116601184
B1422253653840N00525770WA0116701184
B1422293653825N00525763WA0116301183
B1422333653810N00525758WA0115901181
B1422373653792N00525755WA0115101177
B1422413653775N00525752WA0114401173
B1422453653760N00525758WA0113501168
B1422493653742N00525760WA0113001164
B1422533653725N00525755WA0112601160
B1422573653708N00525738WA0112701156
B1423013653695N00525715WA0112901153
B1423053653695N00525685WA0112901150
B1423093653697N00525655WA0113101148
B1423133653705N00525622WA0113101147
B1423173653720N00525595WA0113201145
B1423213653742N00525575WA0113601145
B1423253653762N00525565WA0114301145
B1423293653780N00525570WA0114701148
B1423333653800N00525555WA0114501150
B1423373653808N00525530WA0114601153
B1423413653805N00525495WA0114401156
B1423453653795N00525470WA0114501157
B1423493653778N00525450WA0114601158
B1423533653762N00525445WA0115301159
B1423573653753N00525445WA0116401160
B1424013653753N00525457WA0117501163
B1424053653770N00525460WA0118101168
B1424093653790N00525435WA0119301175
B1424133653790N00525400WA0120701183
B1424173653775N00525390WA0121901192
B1424213653775N00525400WA0123401197
B1424253653792N00525405WA0124601210
B1424293653810N00525377WA0125601222
B1424333653805N00525350WA0126601235
B1424373653792N00525348WA0128001246
B1424413653795N00525357WA0129201253
B1424453653815N00525357WA0130001267
B1424493653830N00525335WA0131001280
B1424533653828N00525305WA0131901291
B1424573653815N00525282WA0132801303
B1425013653803N00525282WA0133401314
B1425053653798N00525298WA0134601323
B1425093653815N00525307WA0135701334
B1425133653830N00525290WA0136401344
B1425173653833N00525255WA0137301353
B1425213653820N00525240WA0138401362
B1425253653810N00525242WA0139201370
B1425293653808N00525255WA0140301375
B1425333653823N00525265WA0141501385
B1425373653840N00525250WA0142501396
B1425413653845N00525220WA0143201408
B1425453653835N00525203WA0144001419
B1425493653820N00525190WA0144901430
B1425533653805N00525187WA0146001441
B1425573653790N00525195WA0146801453
B1426013653780N00525205WA0147601461
B1426053653770N00525217WA0148101471
B1426093653760N00525230WA0148201478
B1426133653750N00525242WA0148401484
B1426173653737N00525253WA0148401489
B1426213653728N00525270WA0148901494
B1426253653720N00525290WA0148901499
B1426293653712N00525307WA0149201502
B1426333653710N00525330WA0149701504
B1426373653710N00525353WA0149401507
B1426413653712N00525373WA0148801508
B1426453653715N00525395WA0147501506
B1426493653720N00525418WA0146201502
B1426533653722N00525437WA0145401496
B1426573653725N00525460WA0144601490
B1427013653730N00525480WA0144101484
B1427053653733N00525500WA0144001478
B1427093653735N00525523WA0143501473
B1427133653737N00525540WA0143601468
B1427173653737N00525560WA0143201464
B1427213653735N00525580WA0143001460
B1427253653735N00525597WA0142701457
B1427293653735N00525615WA0142201453
B1427333653733N00525635WA0141901449
B1427373653735N00525658WA0141601446
B1427413653737N00525677WA0141401443
B1427453653740N00525697WA0141301439
B1427493653745N00525715WA0141301437
B1427533653747N00525733WA0141701435
B1427573653753N00525750WA0141701434
B1428013653755N00525770WA0141601433
B1428053653762N00525790WA0141001432
B1428093653765N00525813WA0141201430
B1428133653765N00525833WA0140701429
B1428173653767N00525855WA0140201426
B1428213653770N00525875WA0140001424
B1428253653775N00525897WA0139601421
B1428293653778N00525920WA0138901418
B1428333653780N00525942WA0138301415
B1428373653785N00525962WA0137701411
B1428413653787N00525985WA0137301406
B1428453653792N00526008WA0137201400
B1428493653795N00526030WA0136501394
B1428533653800N00526050WA0136001389
B1428573653803N00526075WA0135401383
B1429013653808N00526095WA0134801377
B1429053653810N00526120WA0134401372
B1429093653810N00526140WA0134401367
B1429133653810N00526162WA0134101363
B1429173653808N00526180WA0134201360
B1429213653805N00526198WA0133901357
B1429253653803N00526210WA0133501355
B1429293653803N00526228WA0132901352
B1429333653805N00526243WA0132401349
B1429373653805N00526255WA0132001347
B1429413653805N00526273WA0131201342
B1429453653805N00526287WA0130701336
B1429493653803N00526307WA0130001331
B1429533653803N00526320WA0129901327
B1429573653800N00526335WA0129701325
B1430013653800N00526348WA0129401323
B1430053653800N00526360WA0129801321
B1430093653798N00526370WA0130201320
B1430133653795N00526382WA0130401319
B1430173653795N00526398WA0130701318
B1430213653792N00526410WA0131201318
B1430253653790N00526423WA0131301318
B1430293653785N00526438WA0131301318
B1430333653787N00526452WA0131801320
B1430373653798N00526465WA0131401321
B1430413653808N00526477WA0131301323
B1430453653810N00526493WA0130901323
B1430493653800N00526505WA0130601323
B1430533653787N00526515WA0130601322
B1430573653775N00526522WA0130901322
B1431013653760N00526527WA0130301322
B1431053653750N00526545WA0130201321
B1431093653750N00526565WA0130301320
B1431133653750N00526580WA0131001320
B1431173653740N00526585WA0131601321
B1431213653725N00526588WA0132201323
B1431253653728N00526600WA0132701325
B1431293653747N00526602WA0133001329
B1431333653760N00526577WA0133201333
B1431373653750N00526552WA0133501337
B1431413653735N00526550WA0133801340
B1431453653735N00526565WA0134401344
B1431493653755N00526572WA0135301349
B1431533653772N00526565WA0135501354
B1431573653780N00526538WA0135401358
B1432013653775N00526513WA0135801362
B1432053653760N00526500WA0136201366
B1432093653747N00526505WA0136601369
B1432133653755N00526518WA0137401373
B1432173653775N00526513WA0137901377
B1432213653787N00526485WA0138701381
B1432253653785N00526460WA0139401386
B1432293653770N00526452WA0139401391
B1432333653760N00526465WA0139601395
B1432373653770N00526482WA0140001398
B1432413653785N00526485WA0141001402
B1432453653805N00526470WA0141701407
B1432493653805N00526440WA0142301412
B1432533653790N00526425WA0142601418
B1432573653775N00526420WA0142801423
B1433013653762N00526418WA0142801429
B1433053653745N00526425WA0142701433
B1433093653730N00526430WA0143501436
B1433133653712N00526430WA0144001440
B1433173653700N00526443WA0144101444
B1433213653705N00526460WA0144901449
B1433253653720N00526460WA0145301453
B1433293653730N00526432WA0145801458
B1433333653720N00526407WA0146301462
B1433373653705N00526410WA0145901466
B1433413653695N00526432WA0145101468
B1433453653687N00526448WA0144901469
B1433493653683N00526468WA0144601469
B1433533653675N00526488WA0144701468
B1433573653667N00526505WA0145501467
B1434013653665N00526527WA0146201468
B1434053653678N00526547WA0146501470
B1434093653700N00526545WA0146601473
B1434133653715N00526525WA0146601476
B1434173653710N00526505WA0146801478
B1434213653697N00526500WA0147001481
B1434253653687N00526513WA0147301483
B1434293653685N00526532WA0147801486
B1434333653697N00526555WA0148001488
B1434373653722N00526555WA0148101490
B1434413653735N00526538WA0148101493
B1434453653735N00526515WA0148301495
B1434493653725N00526507WA0148701496
B1434533653715N00526518WA0149001498
B1434573653712N00526540WA0149301500
B1435013653722N00526565WA0149401503
B1435053653745N00526583WA0149001504
B1435093653767N00526595WA0148501505
B1435133653790N00526597WA0148001505
B1435173653812N00526590WA0147501503
B1435213653830N00526572WA0147001501
B1435253653840N00526550WA0146401498
B1435293653840N00526527WA0146001494
B1435333653837N00526507WA0145801490
B1435373653828N00526493WA0145501487
B1435413653817N00526480WA0145601484
B1435453653805N00526480WA0145601481
B1435493653792N00526493WA0145701479
B1435533653787N00526515WA0146001477
B1435573653790N00526540WA0146001477
B1436013653795N00526568WA0146101476
B1436053653795N00526597WA0145501475
B1436093653800N00526625WA0144301473
B1436133653803N00526655WA0143001469
B1436173653805N00526680WA0141601464
B1436213653812N00526705WA0140501456
B1436253653817N00526727WA0140101448
B1436293653817N00526753WA0139401440
B1436333653815N00526772WA0138901432
B1436373653815N00526795WA0138501425
B1436413653810N00526815WA0138501419
B1436453653803N00526830WA0138501414
B1436493653795N00526850WA0138201409
B1436533653792N00526872WA0138101406
B1436573653790N00526895WA0138101403
B1437013653783N00526910WA0138001401
B1437053653770N00526922WA0137701399
B1437093653760N00526935WA0137501397
B1437133653745N00526940WA0137301396
B1437173653735N00526960WA0137101394
B1437213653742N00526987WA0136801393
B1437253653762N00527003WA0136501391
B1437293653787N00527008WA0136301389
B1437333653810N00527000WA0135901387
B1437373653830N00526985WA0135501384
B1437413653845N00526965WA0134901381
B1437453653853N00526940WA0134501378
B1437493653858N00526917WA0133901375
B1437533653862N00526895WA0133201371
B1437573653867N00526865WA0133001366
B1438013653875N00526840WA0132901362
B1438053653885N00526813WA0132501357
B1438093653895N00526788WA0132301352
B1438133653905N00526765WA0132301348
B1438173653910N00526740WA0131901345
B1438213653915N00526713WA0131601342
B1438253653915N00526688WA0131101337
B1438293653917N00526660WA0130301333
B1438333653917N00526635WA0129701329
B1438373653915N00526605WA0129301325
B1438413653917N00526575WA0128701321
B1438453653923N00526545WA0128701317
B1438493653920N00526518WA0127901312
B1438533653920N00526490WA0127301308
B1438573653915N00526465WA0126701304
B1439013653910N00526438WA0125901298
B1439053653907N00526407WA0125201292
B1439093653905N00526375WA0124901286
B1439133653900N00526343WA0124801281
B1439173653892N00526315WA0124901275
B1439213653890N00526285WA0124901271
B1439253653885N00526257WA0124901268
B1439293653865N00526240WA0124701266
B1439333653855N00526215WA0124601265
B1439373653845N00526195WA0124801265
B1439413653835N00526170WA0124601264
B1439453653828N00526145WA0124401263
B1439493653820N00526120WA0124001261
B1439533653823N00526087WA0123601259
B1439573653830N00526058WA0123601256
B1440013653845N00526025WA0123501254
B1440053653860N00525997WA0123901253
B1440093653873N00525970WA0123501252
B1440133653880N00525937WA0123301252
B1440173653885N00525903WA0122901252
B1440213653885N00525870WA0122601251
B1440253653885N00525840WA0121901249
B1440293653885N00525805WA0121201245
B1440333653887N00525772WA0120701241
B1440373653882N00525742WA0120701237
B1440413653875N00525710WA0120301233
B1440453653867N00525677WA0119901229
B1440493653858N00525647WA0119801225
B1440533653850N00525613WA0119001221
B1440573653848N00525580WA0119001217
B1441013653850N00525547WA0118801213
B1441053653858N00525518WA0118701210
B1441093653867N00525485WA0118501208
B1441133653870N00525455WA0118201205
B1441173653873N00525427WA0118001203
B1441213653870N00525400WA0118201200
B1441253653873N00525373WA0118201198
B1441293653878N00525340WA0118601197
B1441333653890N00525315WA0119101197
B1441373653907N00525295WA0119401199
B1441413653923N00525270WA0120101203
B1441453653940N00525257WA0121101207
B1441493653955N00525260WA0122301213
B1441533653955N00525275WA0123201216
B1441573653940N00525278WA0124201223
B1442013653923N00525260WA0124901232
B1442053653925N00525230WA0125101239
B1442093653942N00525205WA0125501246
B1442133653960N00525195WA0126701253
B1442173653975N00525190WA0127501261
B1442213653993N00525173WA0127801268
B1442253654012N00525153WA0129401277
B1442293654023N00525125WA0130501287
B1442333654015N00525090WA0131501297
B1442373653998N00525078WA0132801307
B1442413653990N00525085WA0133601315
B1442453654005N00525087WA0134801323
B1442493654020N00525067WA0136101335
B1442533654020N00525033WA0136701346
B1442573654003N00525010WA0137701358
B1443013653987N00525010WA0138601368
B1443053653970N00525008WA0139301377
B1443093653955N00525008WA0139601385
B1443133653942N00525010WA0139801393
B1443173653932N00525020WA0140001397
B1443213653932N00525035WA0139701402
B1443253653937N00525050WA0139501406
B1443293653945N00525065WA0139201407
B1443333653950N00525085WA0138901408
B1443373653962N00525100WA0138801407
B1443413653973N00525117WA0138901406
B1443453653980N00525130WA0139501405
B1443493653980N00525145WA0140001405
B1443533653980N00525162WA0140301407
B1443573653975N00525180WA0140301408
B1444013653978N00525200WA0139501409
B1444053653980N00525217WA0139101409
B1444093653980N00525237WA0138801408
B1444133653978N00525255WA0138501407
B1444173653978N00525278WA0137801404
B1444213653980N00525295WA0137201401
B1444253653985N00525310WA0137001397
B1444293653990N00525325WA0136601394
B1444333653998N00525340WA0135701389
B1444373654007N00525353WA0135301385
B1444413654023N00525360WA0134701380
B1444453654035N00525373WA0134001374
B1444493654045N00525385WA0133601368
B1444533654057N00525398WA0133201362
B1444573654073N00525407WA0133401358
B1445013654085N00525418WA0133001354
B1445053654093N00525430WA0132801351
B1445093654105N00525440WA0132301347
B1445133654125N00525440WA0132001343
B1445173654148N00525430WA0131701340
B1445213654170N00525415WA0130701337
B1445253654188N00525393WA0130001332
B1445293654200N00525362WA0129301328
B1445333654207N00525330WA0128901323
B1445373654215N00525298WA0128601319
B1445413654218N00525265WA0128101314
B1445453654218N00525232WA0127301309
B1445493654215N00525203WA0126601304
B1445533654207N00525175WA0126201297
B1445573654200N00525150WA0125301291
B1446013654182N00525133WA0124501284
B1446053654170N00525120WA0124301277
B1446093654157N00525108WA0124001271
B1446133654143N00525100WA0123001265
B1446173654127N00525098WA0123101260
B1446213654120N00525098WA0123401258
B1446253654110N00525105WA0123001255
B1446293654105N00525112WA0123501254
B1446333654098N00525120WA0123701253
B1446373654085N00525123WA0124001252
B1446413654073N00525125WA0123301251
B1446453654060N00525137WA0122001249
B1446493654062N00525155WA0121301246
B1446533654070N00525170WA0120401241
B1446573654077N00525185WA0119301235
B1447013654073N00525195WA0118601229
B1447053654060N00525200WA0117801222
B1447093654045N00525185WA0117201215
B1447133654028N00525160WA0116401208
B1447173654012N00525140WA0116401202
B1447213654000N00525120WA0116201197
B1447253653982N00525105WA0116501192
B1447293653970N00525085WA0117301190
B1447333653955N00525080WA0117901190
B1447373653955N00525092WA0118501190
B1447413653970N00525092WA0119001192
B1447453653990N00525067WA0119501195
B1447493653985N00525035WA0120301199
B1447533653968N00525028WA0120501203
B1447573653965N00525040WA0120701206
B1448013653982N00525045WA0121101210
B1448053654000N00525022WA0121701213
B1448093654000N00524987WA0122301217
B1448133653985N00524970WA0122601221
B1448173653970N00524978WA0123001225
B1448213653973N00524992WA0123101227
B1448253653985N00524997WA0123601231
B1448293654005N00524987WA0124301236
B1448333654015N00524958WA0125101240
B1448373654000N00524933WA0125201246
B1448413653980N00524930WA0125301250
B1448453653970N00524942WA0125501255
B1448493653970N00524958WA0125801260
B1448533653982N00524972WA0126001263
B1448573654003N00524972WA0126901266
B1449013654023N00524958WA0128001270
B1449053654025N00524925WA0128801275
B1449093654010N00524908WA0129601280
B1449133654000N00524915WA0130301285
B1449173654003N00524935WA0130601292
B1449213654020N00524938WA0131301300
B1449253654035N00524915WA0132001307
B1449293654035N00524885WA0132801315
B1449333654020N00524870WA0133601321
B1449373654010N00524877WA0134101327
B1449413654018N00524895WA0134401334
B1449453654035N00524892WA0134701340
B1449493654055N00524877WA0135201346
B1449533654055N00524847WA0136001352
B1449573654040N00524838WA0136801358
B1450013654028N00524845WA0137401364
B1450053654030N00524860WA0137301370
B1450093654048N00524865WA0137201375
B1450133654065N00524875WA0136801378
B1450173654070N00524890WA0137001380
B1450213654075N00524905WA0137901382
B1450253654065N00524910WA0138601384
B1450293654053N00524917WA0140001388
B1450333654040N00524922WA0140601394
B1450373654053N00524933WA0140901400
B1450413654070N00524920WA0140701406
B1450453654085N00524890WA0141101411
B1450493654075N00524863WA0141501416
B1450533654062N00524863WA0142101419
B1450573654053N00524870WA0142701422
B1451013654045N00524880WA0143001425
B1451053654037N00524895WA0143501428
B1451093654032N00524908WA0143701434
B1451133654028N00524920WA0144101438
B1451173654023N00524935WA0144001443
B1451213654018N00524950WA0144401447
B1451253654015N00524970WA0144201451
B1451293654015N00524990WA0144901455
B1451333654012N00525005WA0145601459
B1451373654010N00525025WA0145701462
B1451413654010N00525045WA0146001466
B1451453654012N00525062WA0146501469
B1451493654012N00525083WA0147001473
B1451533654010N00525105WA0147301477
B1451573654010N00525123WA0147401481
B1452013654015N00525140WA0147301484
B1452053654015N00525160WA0147001486
B1452093654018N00525180WA0146501486
B1452133654015N00525203WA0146401487
B1452173654012N00525223WA0145601487
B1452213654010N00525242WA0144601484
B1452253654005N00525260WA0143701479
B1452293654000N00525280WA0143001473
B1452333654000N00525300WA0141801466
B1452373653995N00525318WA0141301459
B1452413653990N00525335WA0140501451
B1452453653990N00525355WA0140201443
B1452493653993N00525375WA0139501436
B1452533653995N00525393WA0139501429
B1452573653993N00525412WA0138801423
B1453013653993N00525427WA0138301417
B1453053653990N00525443WA0138101413
B1453093653987N00525457WA0137701409
B1453133653985N00525473WA0137301405
B1453173653980N00525485WA0136801400
B1453213653975N00525498WA0136301395
B1453253653973N00525513WA0135701390
B1453293653973N00525530WA0135201384
B1453333653975N00525547WA0134701379
B1453373653975N00525565WA0134201374
B1453413653978N00525580WA0133401369
B1453453653975N00525595WA0133101364
B1453493653975N00525613WA0132801359
B1453533653968N00525625WA0132801355
B1453573653962N00525640WA0133001351
B1454013653953N00525652WA0133201348
B1454053653945N00525668WA0133501347
B1454093653945N00525680WA0133801346
B1454133653955N00525690WA0133601346
B1454173653978N00525683WA0133101347
B1454213653987N00525655WA0133301347
B1454253653982N00525630WA0133001348
B1454293653968N00525610WA0133001347
B1454333653953N00525600WA0133401348
B1454373653935N00525590WA0133401348
B1454413653917N00525585WA0133201348
B1454453653903N00525593WA0132901349
B1454493653895N00525602WA0133101349
B1454533653887N00525618WA0132401349
B1454573653885N00525633WA0132401348
B1455013653890N00525645WA0132301347
B1455053653895N00525660WA0131701345
B1455093653903N00525672WA0131401342
B1455133653912N00525688WA0131301339
B1455173653920N00525697WA0131001337
B1455213653935N00525713WA0130601334
B1455253653948N00525722WA0130901331
B1455293653960N00525735WA0131001328
B1455333653970N00525747WA0131501327
B1455373653975N00525763WA0132001327
B1455413653982N00525775WA0132301328
B1455453654000N00525775WA0132701330
B1455493654010N00525745WA0132501332
B1455533654000N00525720WA0132501334
B1455573653982N00525715WA0132501336
B1456013653978N00525725WA0133101337
B1456053653980N00525740WA0133201339
B1456093653998N00525745WA0133801341
B1456133654012N00525733WA0133801343
B1456173654023N00525702WA0133501345
B1456213654015N00525672WA0133201347
B1456253654000N00525660WA0133801347
B1456293653985N00525663WA0133801348
B1456333653980N00525675WA0134001350
B1456373653985N00525693WA0134101351
B1456413654003N00525705WA0134001351
B1456453654020N00525715WA0134201351
B1456493654035N00525725WA0133901352
B1456533654050N00525738WA0134201352
B1456573654062N00525747WA0134301353
B1457013654080N00525747WA0134301354
B1457053654095N00525735WA0133701355
B1457093654115N00525730WA0133101354
B1457133654132N00525735WA0132001352
B1457173654152N00525740WA0131301349
B1457213654168N00525750WA0130601343
B1457253654185N00525760WA0130301337
B1457293654200N00525775WA0129801331
B1457333654215N00525788WA0129301326
B1457373654230N00525800WA0128401320
B1457413654245N00525810WA0127801313
B1457453654260N00525820WA0126701306
B1457493654277N00525833WA0125901299
B1457533654295N00525840WA0125401290
B1457573654313N00525847WA0124701283
B1458013654332N00525853WA0124301275
B1458053654350N00525860WA0124001269
B1458093654368N00525867WA0123701264
B1458133654385N00525875WA0123301259
B1458173654402N00525885WA0123001255
B1458213654418N00525890WA0122401251
B1458253654435N00525900WA0122001247
B1458293654445N00525910WA0122001244
B1458333654458N00525922WA0121501241
B1458373654472N00525933WA0121301237
B1458413654488N00525942WA0120901233
B1458453654502N00525955WA0120201229
B1458493654520N00525965WA0119401224
B1458533654535N00525975WA0118601219
B1458573654547N00525987WA0118001213
B1459013654565N00526000WA0116901207
B1459053654580N00526010WA0116501200
B1459093654597N00526020WA0115801193
B1459133654612N00526030WA0115501187
B1459173654625N00526037WA0115001181
B1459213654637N00526045WA0114201175
B1459253654653N00526053WA0113301168
B1459293654667N00526060WA0113101162
B1459333654680N00526073WA0113301157
B1459373654692N00526085WA0113201153
B1459413654697N00526100WA0113101149
B1459453654703N00526117WA0112601146
B1459493654710N00526130WA0112401144
B1459533654723N00526140WA0111701142
B1459573654735N00526150WA0111201138
B1500013654748N00526157WA0110101133
B1500053654755N00526165WA0110001130
B1500093654760N00526180WA0109401125
B1500133654770N00526190WA0108901120
B1500173654785N00526200WA0108401114
B1500213654800N00526207WA0108201109
B1500253654815N00526215WA0107801104
B1500293654830N00526223WA0107301100
B1500333654842N00526230WA0106501095
B1500373654857N00526243WA0106301090
B1500413654875N00526255WA0106401086
B1500453654890N00526268WA0107201083
B1500493654903N00526280WA0107501082
B1500533654925N00526270WA0108201083
B1500573654925N00526245WA0108801086
B1501013654910N00526232WA0109701090
B1501053654903N00526245WA0110401095
B1501093654907N00526262WA0110701100
B1501133654928N00526262WA0110901105
B1501173654940N00526243WA0111201109
B1501213654932N00526220WA0111701113
B1501253654915N00526215WA0112101117
B1501293654910N00526232WA0112301121
B1501333654923N00526245WA0112201125
B1501373654940N00526243WA0112101128
B1501413654957N00526220WA0112001129
B1501453654960N00526190WA0112301131
B1501493654945N00526165WA0112301132
B1501533654928N00526160WA0112501134
B1501573654918N00526173WA0113001136
B1502013654912N00526185WA0113101137
B1502053654923N00526200WA0113101139
B1502093654940N00526193WA0113301141
B1502133654950N00526167WA0113501142
B1502173654940N00526142WA0113401143
B1502213654928N00526130WA0113801144
B1502253654910N00526135WA0113701145
B1502293654900N00526145WA0113701147
B1502333654890N00526157WA0113001147
B1502373654885N00526175WA0111901146
B1502413654893N00526190WA0110801142
B1502453654912N00526195WA0110001136
B1502493654930N00526190WA0109301130
B1502533654945N00526198WA0108201125
B1502573654955N00526205WA0107501119
B1503013654973N00526215WA0106701112
B1503053654990N00526220WA0106401105
B1503093655007N00526228WA0105901097
B1503133655023N00526235WA0105701091
B1503173655032N00526243WA0105501087
B1503213655045N00526250WA0105101084
B1503253655065N00526255WA0104901079
B1503293655080N00526257WA0104601075
B1503333655095N00526268WA0104201071
B1503373655105N00526280WA0104001067
B1503413655113N00526298WA0103401062
B1503453655115N00526310WA0103701058
B1503493655123N00526330WA0102801055
B1503533655127N00526345WA0103101051
B1503573655135N00526357WA0102901048
B1504013655155N00526365WA0102801045
B1504053655165N00526373WA0103001043
B1504093655177N00526385WA0102701042
B1504133655190N00526398WA0102401042
B1504173655205N00526410WA0102501041
B1504213655220N00526418WA0102701040
B1504253655240N00526420WA0103401040
B1504293655255N00526420WA0104001041
B1504333655270N00526418WA0104701043
B1504373655290N00526405WA0104801046
B1504413655310N00526393WA0105801050
B1504453655333N00526380WA0106901056
B1504493655352N00526370WA0107901062
B1504533655372N00526355WA0109301070
B1504573655392N00526348WA0110501079
B1505013655413N00526337WA0111401088
B1505053655425N00526345WA0112401097
B1505093655415N00526350WA0113301103
B1505133655400N00526330WA0114501114
B1505173655410N00526302WA0115501125
B1505213655430N00526295WA0116601137
B1505253655435N00526307WA0117801147
B1505293655422N00526307WA0118601155
B1505333655410N00526287WA0119601168
B1505373655415N00526260WA0120601179
B1505413655435N00526248WA0121901190
B1505453655442N00526255WA0122901200
B1505493655435N00526265WA0123301207
B1505533655420N00526255WA0124701219
B1505573655413N00526230WA0125801230
B1506013655425N00526205WA0126501241
B1506053655445N00526195WA0127401251
B1506093655455N00526200WA0128301260
B1506133655450N00526210WA0129301265
B1506173655430N00526198WA0130301276
B1506213655427N00526167WA0131201286
B1506253655442N00526150WA0131801296
B1506293655455N00526160WA0132201305
B1506333655453N00526173WA0133301311
B1506373655438N00526178WA0133801321
B1506413655420N00526167WA0134401331
B1506453655410N00526142WA0134901339
B1506493655415N00526112WA0135301346
B1506533655433N00526098WA0135501351
B1506573655453N00526100WA0135601356
B1507013655455N00526117WA0135701361
B1507053655455N00526132WA0136401364
B1507093655445N00526148WA0137501368
B1507133655450N00526165WA0138101374
B1507173655465N00526165WA0138801380
B1507213655470N00526137WA0139201386
B1507253655460N00526112WA0139601391
B1507293655445N00526110WA0140601395
B1507333655435N00526125WA0140901402
B1507373655440N00526142WA0141501409
B1507413655460N00526145WA0141601416
B1507453655470N00526130WA0142201422
B1507493655478N00526107WA0142301427
B1507533655467N00526087WA0142601431
B1507573655450N00526090WA0142801435
B1508013655440N00526103WA0143301439
B1508053655445N00526117WA0143501444
B1508093655463N00526117WA0143701447
B1508133655475N00526095WA0143901450
B1508173655475N00526067WA0144201453
B1508213655460N00526048WA0144701456
B1508253655442N00526045WA0145001459
B1508293655433N00526055WA0145101462
B1508333655433N00526073WA0145001463
B1508373655440N00526090WA0144701464
B1508413655453N00526105WA0144501465
B1508453655465N00526115WA0144501465
B1508493655485N00526123WA0144401464
B1508533655500N00526130WA0143901464
B1508573655515N00526135WA0143801464
B1509013655533N00526140WA0143001462
B1509053655550N00526142WA0143001460
B1509093655570N00526145WA0142901459
B1509133655590N00526145WA0142601456
B1509173655610N00526145WA0142101454
B1509213655630N00526142WA0141701451
B1509253655650N00526140WA0140801447
B1509293655667N00526137WA0140701443
B1509333655685N00526135WA0140501439
B1509373655705N00526130WA0139601435
B1509413655723N00526130WA0138501429
B1509453655742N00526137WA0137801423
B1509493655760N00526150WA0136801415
B1509533655775N00526162WA0135701408
B1509573655792N00526175WA0135401400
B1510013655812N00526182WA0134501393
B1510053655832N00526195WA0133501386
B1510093655845N00526212WA0132401378
B1510133655855N00526230WA0131401369
B1510173655865N00526253WA0130401360
B1510213655870N00526275WA0129601352
B1510253655875N00526293WA0128901343
B1510293655880N00526315WA0128101334
B1510333655878N00526335WA0127501325
B1510373655875N00526355WA0126801315
B1510413655868N00526373WA0126201307
B1510453655857N00526390WA0125601299
B1510493655843N00526400WA0125001292
B1510533655830N00526410WA0125001286
B1510573655815N00526418WA0124601281
B1511013655803N00526425WA0124101276
B1511053655785N00526425WA0123501272
B1511093655770N00526425WA0123301269
B1511133655753N00526425WA0122801265
B1511173655737N00526425WA0122401260
B1511213655723N00526427WA0121801254
B1511253655705N00526427WA0121501249
B1511293655692N00526425WA0120901244
B1511333655675N00526425WA0120501238
B1511373655660N00526425WA0119801233
B1511413655645N00526420WA0119501229
B1511453655628N00526413WA0118701223
B1511493655610N00526405WA0118001217
B1511533655595N00526400WA0117301211
B1511573655580N00526395WA0116701204
B1512013655562N00526388WA0115601197
B1512053655550N00526380WA0115001190
B1512093655535N00526375WA0114701183
B1512133655520N00526375WA0114201177
B1512173655505N00526375WA0113801171
B1512213655490N00526370WA0113301165
B1512253655475N00526365WA0112601159
B1512293655460N00526360WA0112101153
B1512333655445N00526352WA0111401148
B1512373655433N00526345WA0111101142
B1512413655417N00526332WA0110101136
B1512453655400N00526320WA0109601130
B1512493655385N00526305WA0108901124
B1512533655367N00526295WA0108401118
B1512573655352N00526282WA0107401112
B1513013655335N00526278WA0106901105
B1513053655320N00526270WA0106001098
B1513093655305N00526265WA0105301091
B1513133655293N00526260WA0104401083
B1513173655280N00526250WA0103401075
B1513213655268N00526243WA0102401066
B1513253655257N00526232WA0101201057
B1513293655245N00526220WA0100101047
B1513333655235N00526207WA0098801037
B1513373655225N00526185WA0097301025
B1513413655215N00526155WA0095701013
B1513453655210N00526128WA0094801000
B1513493655202N00526100WA0093900988
B1513533655195N00526080WA0093900977
B1513573655190N00526058WA0093100967
B1514013655185N00526035WA0092600958
B1514053655182N00526005WA0092000949
B1514093655180N00525975WA0091800942
B1514133655170N00525947WA0091700936
B1514173655155N00525930WA0092200932
B1514213655145N00525912WA0092200929
B1514253655130N00525895WA0092700928
B1514293655118N00525878WA0093100929
B1514333655102N00525863WA0093800930
B1514373655088N00525845WA0094200933
B1514413655073N00525825WA0094900936
B1514453655055N00525802WA0095400940
B1514493655043N00525772WA0095400944
B1514533655037N00525735WA0095700948
B1514573655037N00525695WA0095400951
B1515013655045N00525655WA0095700953
B1515053655055N00525622WA0095700955
B1515093655075N00525595WA0095600956
B1515133655090N00525568WA0095200957
B1515173655098N00525532WA0094500956
B1515213655100N00525495WA0094000955
B1515253655100N00525457WA0093300952
B1515293655085N00525427WA0092500949
B1515333655068N00525407WA0091800944
B1515373655052N00525398WA0090900939
B1515413655035N00525390WA0090400934
B1515453655020N00525390WA0089500928
B1515493655010N00525400WA0088800922
B1515533655002N00525405WA0088600918
B1515573654987N00525405WA0088100913
B1516013654975N00525402WA0088100906
B1516053654962N00525402WA0088600903
B1516093654948N00525393WA0088700901
B1516133654935N00525377WA0088500900
B1516173654923N00525370WA0088100898
B1516213654907N00525362WA0087600897
B1516253654895N00525345WA0087600894
B1516293654882N00525320WA0087500893
B1516333654873N00525307WA0086900890
B1516373654860N00525300WA0085900887
B1516413654850N00525295WA0084900882
B1516453654850N00525307WA0083600878
B1516493654867N00525312WA0082200868
B1516533654893N00525300WA0081400857
B1516573654910N00525275WA0081800849
B1517013654925N00525250WA0081800842
B1517053654932N00525215WA0081800837
B1517093654925N00525190WA0081600833
B1517133654912N00525178WA0081000830
B1517173654905N00525185WA0080100827
B1517213654907N00525195WA0079000825
B1517253654912N00525207WA0078100821
B1517293654930N00525212WA0077500816
B1517333654943N00525220WA0077800810
B1517373654950N00525230WA0077600805
B1517413654955N00525237WA0077300802
B1517453654955N00525250WA0077700797
B1517493654950N00525260WA0077400794
B1517533654943N00525268WA0078300791
B1517573654932N00525278WA0078400790
B1518013654940N00525290WA0079200790
B1518053654943N00525300WA0079700791
B1518093654937N00525310WA0080400793
B1518133654923N00525315WA0080900797
B1518173654905N00525310WA0080900800
B1518213654887N00525300WA0081400804
B1518253654870N00525285WA0081700808
B1518293654850N00525280WA0082200813
B1518333654835N00525275WA0081700817
B1518373654823N00525280WA0081400820
B1518413654810N00525278WA0080900821
B1518453654795N00525275WA0080600822
B1518493654785N00525268WA0080200821
B1518533654775N00525270WA0079500820
B1518573654765N00525268WA0078600817
B1519013654753N00525255WA0078000813
B1519053654740N00525235WA0077400807
B1519093654728N00525230WA0076700800
B1519133654720N00525235WA0076500797
B1519173654728N00525250WA0076000792
B1519213654750N00525253WA0075300783
B1519253654770N00525232WA0074700774
B1519293654783N00525200WA0073900766
B1519333654773N00525185WA0073200760
B1519373654770N00525198WA0072700757
B1519413654780N00525210WA0072400753
B1519453654803N00525210WA0071400747
B1519493654820N00525178WA0070600741
B1519533654817N00525148WA0070100733
B1519573654807N00525150WA0069600728
B1520013654810N00525160WA0069500725
B1520053654820N00525173WA0068500719
B1520093654835N00525182WA0067700711
B1520133654857N00525182WA0067400703
B1520173654880N00525175WA0067200698
B1520213654903N00525170WA0067000694
B1520253654912N00525180WA0066700690
B1520293654915N00525195WA0066500688
B1520333654928N00525200WA0066400684
B1520373654948N00525198WA0066200680
B1520413654973N00525190WA0066100677
B1520453654987N00525187WA0066800675
B1520493655005N00525190WA0066500674
B1520533655020N00525182WA0066700673
B1520573655032N00525190WA0065600672
B1521013655032N00525195WA0065600671
B1521053655027N00525200WA0064800669
B1521093655027N00525207WA0065700668
B1521133655020N00525210WA0065100666
B1521173655010N00525215WA0064300665
B1521213654995N00525215WA0063700660
B1521253654990N00525223WA0063100657
B1521293654995N00525232WA0062300654
B1521333655007N00525235WA0061600648
B1521373655027N00525230WA0060500639
B1521413655048N00525215WA0059700630
B1521453655068N00525207WA0059000621
B1521493655090N00525207WA0058400613
B1521533655110N00525212WA0057400605
B1521573655120N00525228WA0057000597
B1522013655123N00525242WA0056600590
B1522053655113N00525235WA0056300584
B1522093655105N00525210WA0055600578
B1522133655093N00525205WA0054800571
B1522173655098N00525223WA0054600566
B1522213655100N00525240WA0054800561
B1522253655090N00525240WA0053700558
B1522293655080N00525220WA0052900553
B1522333655073N00525200WA0052000546
B1522373655065N00525205WA0051300539
B1522413655073N00525220WA0050900532
B1522453655062N00525228WA0050100525
B1522493655055N00525235WA0049600519
B1522533655048N00525245WA0049600513
B1522573655043N00525255WA0049000509
B1523013655040N00525265WA0048700504
B1523053655040N00525265WA0048800501
B1523093655040N00525265WA0048800499
B1523133655045N00525262WA0048800496
B1523173655045N00525262WA0048800493
B1523213655048N00525262WA0048800489
B1523253655048N00525262WA0048800486
B1523293655045N00525262WA0048700484
B1523333655045N00525262WA0048700482
B1523373655045N00525262WA0048700480
B1523413655045N00525262WA0048700479
B1523453655045N00525262WA0048700478
LXGD GpsDump version 4.73
LXGD Downloaded 2015-04-24  16:59:02
GB33AFA3F3E831ECF
